»·PEaware :: UAL1399 KPDX-KGEG

UAL1399 :: KPDX-KGEG

FLIGHT INFORMATION

Flight Status: Arrived
Operator:
United Airlines
More flights by this operator :: More flights under this callsign
Pilot: David C. (16084)
Aircraft: AIRBUS A320
(A320)
More flights by this aircraft type
Origin: KPDX Portland Intl
United States
Destination: KGEG Spokane Intl
United States
More flights between these airports :: More routes between these airports
Route: LAVAA6 YKM MWH ZOOMR1
File this flight plan on PilotEdge
Remarks:
Altitude:
(Current/Filed)
29,000ft
Speed:
(Current/Filed)
477kts
Departed: 09-Jul-20 12:11 PM
Arrived: 09-Jul-20 12:50 PM
Distance/Time
Traveled:
242nm/0:39
Distance/Time
To Go:
Arrived

Flight Plot

Page will automatically refresh every two minutes.


Map Options




Map Legend


Flown Route
Filed Route
Departure Airport
Arrival Airport
Navaid (VOR, NDB)
Fix

Horizontal Profiles

Position Reports

Time Latitude Longitude Heading Altitude Ground
Speed
09-Jul-20 11:20 45.590062 -122.591047 209 31ft 0kts
09-Jul-20 11:21 45.590062 -122.591047 209 31ft 0kts
09-Jul-20 11:22 45.590062 -122.591047 209 31ft 0kts
09-Jul-20 11:23 45.590062 -122.591047 209 31ft 0kts
09-Jul-20 11:24 45.590062 -122.591047 209 31ft 0kts
09-Jul-20 11:25 45.590062 -122.591047 209 31ft 0kts
09-Jul-20 11:26 45.590062 -122.591047 209 31ft 0kts
09-Jul-20 11:27 45.590062 -122.591047 209 31ft 0kts
09-Jul-20 11:28 45.590062 -122.591047 209 31ft 0kts
09-Jul-20 11:29 45.590062 -122.591047 209 31ft 0kts
09-Jul-20 11:30 45.590062 -122.591047 209 31ft 0kts
09-Jul-20 11:31 45.590062 -122.591047 209 31ft 0kts
09-Jul-20 11:32 45.590062 -122.591047 209 31ft 0kts
09-Jul-20 11:32 45.590062 -122.591047 209 31ft 0kts
09-Jul-20 11:33 45.590062 -122.591047 209 31ft 0kts
09-Jul-20 11:35 45.590062 -122.591047 209 31ft 0kts
09-Jul-20 11:35 45.590062 -122.591047 209 31ft 0kts
09-Jul-20 11:36 45.590062 -122.591047 209 31ft 0kts
09-Jul-20 11:37 45.590062 -122.591047 209 31ft 0kts
09-Jul-20 11:38 45.590062 -122.591047 209 31ft 0kts
09-Jul-20 11:39 45.590062 -122.591047 209 31ft 0kts
09-Jul-20 11:40 45.590062 -122.591047 209 31ft 0kts
09-Jul-20 11:41 45.590062 -122.591047 209 31ft 0kts
09-Jul-20 11:42 45.590062 -122.591047 209 31ft 0kts
09-Jul-20 11:43 45.590062 -122.591047 209 31ft 0kts
09-Jul-20 11:44 45.590062 -122.591047 209 31ft 0kts
09-Jul-20 11:45 45.590062 -122.591047 209 31ft 0kts
09-Jul-20 11:46 45.590062 -122.591047 209 31ft 0kts
09-Jul-20 11:47 45.590062 -122.591047 209 31ft 0kts
09-Jul-20 11:48 45.590062 -122.591047 209 31ft 0kts
09-Jul-20 11:49 45.590062 -122.591047 209 31ft 0kts
09-Jul-20 11:50 45.590062 -122.591047 209 31ft 0kts
09-Jul-20 11:51 45.590062 -122.591047 209 31ft 0kts
09-Jul-20 11:52 45.590062 -122.591047 209 31ft 0kts
09-Jul-20 11:53 45.590062 -122.591047 209 31ft 0kts
09-Jul-20 11:54 45.590062 -122.591047 209 31ft 0kts
09-Jul-20 11:55 45.590062 -122.591047 209 31ft 0kts
09-Jul-20 11:56 45.590062 -122.591047 209 31ft 0kts
09-Jul-20 11:57 45.590062 -122.591047 209 31ft 0kts
09-Jul-20 11:58 45.590062 -122.591047 209 31ft 0kts
09-Jul-20 11:59 45.590062 -122.591047 209 31ft 0kts
09-Jul-20 12:00 45.590463 -122.590518 247 31ft 2kts
09-Jul-20 12:01 45.590481 -122.589902 285 31ft 0kts
09-Jul-20 12:02 45.590482 -122.589902 285 31ft 0kts
09-Jul-20 12:03 45.590482 -122.589902 285 31ft 0kts
09-Jul-20 12:04 45.590482 -122.589902 285 31ft 0kts
09-Jul-20 12:05 45.591773 -122.593174 299 31ft 13kts
09-Jul-20 12:06 45.593804 -122.597906 344 31ft 11kts
09-Jul-20 12:07 45.594372 -122.597666 45 31ft 0kts
09-Jul-20 12:08 45.594372 -122.597666 45 31ft 0kts
09-Jul-20 12:09 45.594865 -122.595854 116 31ft 10kts
09-Jul-20 12:10 45.577184 -122.550845 115 975ft 195kts
09-Jul-20 12:11 45.567015 -122.469480 100 3785ft 225kts
09-Jul-20 12:12 45.548957 -122.369507 103 6139ft 285kts
09-Jul-20 12:13 45.576214 -122.270086 44 9090ft 299kts
09-Jul-20 12:14 45.636677 -122.178330 45 11110ft 349kts
09-Jul-20 12:15 45.685678 -122.044950 65 12273ft 406kts
09-Jul-20 12:16 45.733113 -121.897785 65 14981ft 402kts
09-Jul-20 12:17 45.799418 -121.767212 48 17001ft 415kts
09-Jul-20 12:18 45.875768 -121.639074 48 18814ft 429kts
09-Jul-20 12:19 45.954677 -121.505925 48 20422ft 444kts
09-Jul-20 12:20 46.035614 -121.368685 48 21909ft 457kts
09-Jul-20 12:21 46.113137 -121.236601 49 23183ft 469kts
09-Jul-20 12:22 46.197012 -121.092979 49 24420ft 478kts
09-Jul-20 12:23 46.282863 -120.945200 49 25595ft 484kts
09-Jul-20 12:24 46.370015 -120.794312 49 26609ft 492kts
09-Jul-20 12:25 46.457978 -120.641227 49 27542ft 500kts
09-Jul-20 12:26 46.547388 -120.484751 49 28398ft 507kts
09-Jul-20 12:27 46.635739 -120.331320 49 28988ft 517kts
09-Jul-20 12:28 46.725731 -120.175097 49 29033ft 524kts
09-Jul-20 12:29 46.818267 -120.013492 49 29017ft 524kts
09-Jul-20 12:30 46.910438 -119.851525 49 29015ft 525kts
09-Jul-20 12:31 46.999312 -119.694427 50 29005ft 527kts
09-Jul-20 12:32 47.092618 -119.528516 50 29030ft 530kts
09-Jul-20 12:33 47.181099 -119.370224 51 29041ft 530kts
09-Jul-20 12:34 47.236745 -119.198469 75 28664ft 525kts
09-Jul-20 12:35 47.281433 -118.990964 74 25425ft 525kts
09-Jul-20 12:36 47.325383 -118.785500 73 24021ft 523kts
09-Jul-20 12:37 47.368197 -118.583400 73 23222ft 510kts
09-Jul-20 12:38 47.409101 -118.388450 73 20823ft 491kts
09-Jul-20 12:39 47.462165 -118.219713 59 17655ft 466kts
09-Jul-20 12:40 47.526948 -118.061039 59 14060ft 437kts
09-Jul-20 12:41 47.585335 -117.917074 59 11493ft 375kts
09-Jul-20 12:42 47.634243 -117.795874 59 10408ft 313kts
09-Jul-20 12:43 47.677455 -117.688063 60 8216ft 296kts
09-Jul-20 12:44 47.715868 -117.592247 61 7136ft 254kts
09-Jul-20 12:45 47.742983 -117.507402 93 6349ft 195kts
09-Jul-20 12:46 47.716195 -117.448288 163 4558ft 187kts
09-Jul-20 12:47 47.670419 -117.460453 221 3367ft 157kts
09-Jul-20 12:48 47.639907 -117.505394 222 2706ft 154kts
09-Jul-20 12:49 47.618283 -117.537847 237 2392ft 19kts
09-Jul-20 12:50 47.621134 -117.537489 45 2392ft 26kts
09-Jul-20 12:51 47.624037 -117.535615 340 2392ft 0kts
09-Jul-20 12:52 47.624056 -117.535624 340 2392ft 0kts

Navigation Log

Ident Type
Flight plan parsing failed, navigation log unavailable